Atlanta, Georgia
Traffic Map
Current Weather Conditions
Atlanta, Georgia
Scattered Clouds
Scattered Clouds
75°
Feels Like: 75°
Wind Chill: 75° Ceiling: Unl
Heat Index: 75° Visibility: 10mi
Dew Point: 52° Wind: 15mph
Humidity: 44% Direction: 290° (WNW)
Pressure: 29.99in Gusts: 0mph
Raw Report DataKATL 211752Z 29013KT 10SM SCT045 24/11 A2999 RMK AO2 SLP149 T02390111 10239 20111 58018
Traffic Incident Summary
Active as of:
Severity:
Category:
InformationThere was an issue retrieving the traffic information for this location. Please try a different location or try again shortly.
Advertisements
Track Severe Weather on mobile